sensor_id;sensor_type;location;lat;lon;timestamp;temperature;humidity
21123;DHT22;10719;48.130;11.630;2023-05-15T00:00:25;10.50;99.90
21123;DHT22;10719;48.130;11.630;2023-05-15T00:02:52;10.50;99.90
21123;DHT22;10719;48.130;11.630;2023-05-15T00:05:17;10.60;99.90
21123;DHT22;10719;48.130;11.630;2023-05-15T00:07:43;10.60;99.90
21123;DHT22;10719;48.130;11.630;2023-05-15T00:10:09;10.60;99.90
21123;DHT22;10719;48.130;11.630;2023-05-15T00:12:35;10.50;99.90
21123;DHT22;10719;48.130;11.630;2023-05-15T00:15:01;10.50;99.90
21123;DHT22;10719;48.130;11.630;2023-05-15T00:17:26;10.50;99.90
21123;DHT22;10719;48.130;11.630;2023-05-15T00:19:52;10.50;99.90
21123;DHT22;10719;48.130;11.630;2023-05-15T00:22:22;10.50;99.90
21123;DHT22;10719;48.130;11.630;2023-05-15T00:24:47;10.60;99.90
21123;DHT22;10719;48.130;11.630;2023-05-15T00:27:13;10.60;99.90
21123;DHT22;10719;48.130;11.630;2023-05-15T00:29:38;10.60;99.90
21123;DHT22;10719;48.130;11.630;2023-05-15T00:32:04;10.50;99.90
21123;DHT22;10719;48.130;11.630;2023-05-15T00:34:30;10.50;99.90
21123;DHT22;10719;48.130;11.630;2023-05-15T00:36:55;10.60;99.90
21123;DHT22;10719;48.130;11.630;2023-05-15T00:39:21;10.60;99.90
21123;DHT22;10719;48.130;11.630;2023-05-15T00:41:47;10.50;99.90
21123;DHT22;10719;48.130;11.630;2023-05-15T00:44:15;10.50;99.90
21123;DHT22;10719;48.130;11.630;2023-05-15T00:46:42;10.50;99.90
21123;DHT22;10719;48.130;11.630;2023-05-15T00:49:10;10.50;99.90
21123;DHT22;10719;48.130;11.630;2023-05-15T00:51:41;10.50;99.90
21123;DHT22;10719;48.130;11.630;2023-05-15T00:54:08;10.40;99.90
21123;DHT22;10719;48.130;11.630;2023-05-15T00:56:34;10.40;99.90
21123;DHT22;10719;48.130;11.630;2023-05-15T00:59:02;10.40;99.90
21123;DHT22;10719;48.130;11.630;2023-05-15T01:01:28;10.40;99.90
21123;DHT22;10719;48.130;11.630;2023-05-15T01:04:02;10.30;99.90
21123;DHT22;10719;48.130;11.630;2023-05-15T01:06:29;10.30;99.90
21123;DHT22;10719;48.130;11.630;2023-05-15T01:08:56;10.40;99.90
21123;DHT22;10719;48.130;11.630;2023-05-15T01:11:25;10.30;99.90
21123;DHT22;10719;48.130;11.630;2023-05-15T01:13:51;10.30;99.90
21123;DHT22;10719;48.130;11.630;2023-05-15T01:16:17;10.30;99.90
21123;DHT22;10719;48.130;11.630;2023-05-15T01:18:45;10.30;99.90
21123;DHT22;10719;48.130;11.630;2023-05-15T01:27:11;10.30;99.90
21123;DHT22;10719;48.130;11.630;2023-05-15T01:35:20;10.40;99.90
21123;DHT22;10719;48.130;11.630;2023-05-15T01:37:56;10.30;99.90
21123;DHT22;10719;48.130;11.630;2023-05-15T01:40:25;10.40;99.90
21123;DHT22;10719;48.130;11.630;2023-05-15T01:42:54;10.40;99.90
21123;DHT22;10719;48.130;11.630;2023-05-15T01:45:23;10.40;99.90
21123;DHT22;10719;48.130;11.630;2023-05-15T01:47:49;10.30;99.90
21123;DHT22;10719;48.130;11.630;2023-05-15T01:50:18;10.40;99.90
21123;DHT22;10719;48.130;11.630;2023-05-15T01:52:49;10.40;99.90
21123;DHT22;10719;48.130;11.630;2023-05-15T01:55:17;10.40;99.90
21123;DHT22;10719;48.130;11.630;2023-05-15T01:57:46;10.40;99.90
21123;DHT22;10719;48.130;11.630;2023-05-15T02:00:13;10.40;99.90
21123;DHT22;10719;48.130;11.630;2023-05-15T02:02:39;10.40;99.90
21123;DHT22;10719;48.130;11.630;2023-05-15T02:05:06;10.40;99.90
21123;DHT22;10719;48.130;11.630;2023-05-15T02:07:32;10.40;99.90
21123;DHT22;10719;48.130;11.630;2023-05-15T02:09:58;10.40;99.90
21123;DHT22;10719;48.130;11.630;2023-05-15T02:12:26;10.40;99.90
21123;DHT22;10719;48.130;11.630;2023-05-15T02:14:54;10.40;99.90
21123;DHT22;10719;48.130;11.630;2023-05-15T02:17:20;10.40;99.90
21123;DHT22;10719;48.130;11.630;2023-05-15T02:19:48;10.40;99.90
21123;DHT22;10719;48.130;11.630;2023-05-15T02:22:14;10.30;99.90
21123;DHT22;10719;48.130;11.630;2023-05-15T02:24:39;10.30;99.90
21123;DHT22;10719;48.130;11.630;2023-05-15T02:27:23;10.40;99.90
21123;DHT22;10719;48.130;11.630;2023-05-15T02:38:12;10.30;99.90
21123;DHT22;10719;48.130;11.630;2023-05-15T02:40:40;10.40;99.90
21123;DHT22;10719;48.130;11.630;2023-05-15T02:43:08;10.40;99.90
21123;DHT22;10719;48.130;11.630;2023-05-15T02:45:35;10.40;99.90
21123;DHT22;10719;48.130;11.630;2023-05-15T02:48:01;10.50;99.90
21123;DHT22;10719;48.130;11.630;2023-05-15T02:50:28;10.40;99.90
21123;DHT22;10719;48.130;11.630;2023-05-15T02:53:04;10.40;99.90
21123;DHT22;10719;48.130;11.630;2023-05-15T02:55:32;10.30;99.90
21123;DHT22;10719;48.130;11.630;2023-05-15T02:57:58;10.30;99.90
21123;DHT22;10719;48.130;11.630;2023-05-15T03:00:23;10.30;99.90
21123;DHT22;10719;48.130;11.630;2023-05-15T03:02:49;10.30;99.90
21123;DHT22;10719;48.130;11.630;2023-05-15T03:05:15;10.30;99.90
21123;DHT22;10719;48.130;11.630;2023-05-15T03:07:40;10.20;99.90
21123;DHT22;10719;48.130;11.630;2023-05-15T03:10:07;10.20;99.90
21123;DHT22;10719;48.130;11.630;2023-05-15T03:12:32;10.30;99.90
21123;DHT22;10719;48.130;11.630;2023-05-15T03:14:58;10.30;99.90
21123;DHT22;10719;48.130;11.630;2023-05-15T03:17:24;10.30;99.90
21123;DHT22;10719;48.130;11.630;2023-05-15T03:19:49;10.30;99.90
21123;DHT22;10719;48.130;11.630;2023-05-15T03:22:15;10.30;99.90
21123;DHT22;10719;48.130;11.630;2023-05-15T03:24:40;10.30;99.90
21123;DHT22;10719;48.130;11.630;2023-05-15T03:27:06;10.30;99.90
21123;DHT22;10719;48.130;11.630;2023-05-15T03:29:32;10.30;99.90
21123;DHT22;10719;48.130;11.630;2023-05-15T03:31:57;10.30;99.90
21123;DHT22;10719;48.130;11.630;2023-05-15T03:34:23;10.30;99.90
21123;DHT22;10719;48.130;11.630;2023-05-15T03:36:48;10.30;99.90
21123;DHT22;10719;48.130;11.630;2023-05-15T03:39:14;10.30;99.90
21123;DHT22;10719;48.130;11.630;2023-05-15T03:41:39;10.30;99.90
21123;DHT22;10719;48.130;11.630;2023-05-15T03:44:05;10.30;99.90
21123;DHT22;10719;48.130;11.630;2023-05-15T03:46:30;10.30;99.90
21123;DHT22;10719;48.130;11.630;2023-05-15T03:48:56;10.30;99.90
21123;DHT22;10719;48.130;11.630;2023-05-15T03:51:22;10.30;99.90
21123;DHT22;10719;48.130;11.630;2023-05-15T03:53:48;10.30;99.90
21123;DHT22;10719;48.130;11.630;2023-05-15T03:56:15;10.30;99.90
21123;DHT22;10719;48.130;11.630;2023-05-15T03:58:40;10.30;99.90
21123;DHT22;10719;48.130;11.630;2023-05-15T04:01:06;10.20;99.90
21123;DHT22;10719;48.130;11.630;2023-05-15T04:03:32;10.20;99.90
21123;DHT22;10719;48.130;11.630;2023-05-15T04:05:57;10.20;99.90
21123;DHT22;10719;48.130;11.630;2023-05-15T04:08:23;10.30;99.90
21123;DHT22;10719;48.130;11.630;2023-05-15T04:10:48;10.30;99.90
21123;DHT22;10719;48.130;11.630;2023-05-15T04:13:14;10.30;99.90
21123;DHT22;10719;48.130;11.630;2023-05-15T04:15:40;10.40;99.90
21123;DHT22;10719;48.130;11.630;2023-05-15T04:18:05;10.30;99.90
21123;DHT22;10719;48.130;11.630;2023-05-15T04:20:31;10.30;99.90
21123;DHT22;10719;48.130;11.630;2023-05-15T04:22:58;10.30;99.90
21123;DHT22;10719;48.130;11.630;2023-05-15T04:25:24;10.30;99.90
21123;DHT22;10719;48.130;11.630;2023-05-15T04:27:49;10.30;99.90
21123;DHT22;10719;48.130;11.630;2023-05-15T04:30:15;10.30;99.90
21123;DHT22;10719;48.130;11.630;2023-05-15T04:32:41;10.40;99.90
21123;DHT22;10719;48.130;11.630;2023-05-15T04:35:08;10.30;99.90
21123;DHT22;10719;48.130;11.630;2023-05-15T04:37:35;10.30;99.90
21123;DHT22;10719;48.130;11.630;2023-05-15T04:40:01;10.30;99.90
21123;DHT22;10719;48.130;11.630;2023-05-15T04:42:27;10.40;99.90
21123;DHT22;10719;48.130;11.630;2023-05-15T04:44:53;10.40;99.90
21123;DHT22;10719;48.130;11.630;2023-05-15T04:47:19;10.40;99.90
21123;DHT22;10719;48.130;11.630;2023-05-15T04:49:44;10.40;99.90
21123;DHT22;10719;48.130;11.630;2023-05-15T04:52:12;10.50;99.90
21123;DHT22;10719;48.130;11.630;2023-05-15T04:54:37;10.50;99.90
21123;DHT22;10719;48.130;11.630;2023-05-15T04:57:03;10.50;99.90
21123;DHT22;10719;48.130;11.630;2023-05-15T04:59:29;10.50;99.90
21123;DHT22;10719;48.130;11.630;2023-05-15T05:01:55;10.60;99.90
21123;DHT22;10719;48.130;11.630;2023-05-15T05:04:21;10.60;99.90
21123;DHT22;10719;48.130;11.630;2023-05-15T05:06:47;10.60;99.90
21123;DHT22;10719;48.130;11.630;2023-05-15T05:09:13;10.70;99.90
21123;DHT22;10719;48.130;11.630;2023-05-15T05:11:39;10.60;99.90
21123;DHT22;10719;48.130;11.630;2023-05-15T05:14:08;10.60;99.90
21123;DHT22;10719;48.130;11.630;2023-05-15T05:16:34;10.60;99.90
21123;DHT22;10719;48.130;11.630;2023-05-15T05:19:00;10.60;99.90
21123;DHT22;10719;48.130;11.630;2023-05-15T05:21:25;10.60;99.90
21123;DHT22;10719;48.130;11.630;2023-05-15T05:23:51;10.70;99.90
21123;DHT22;10719;48.130;11.630;2023-05-15T05:26:16;10.70;99.90
21123;DHT22;10719;48.130;11.630;2023-05-15T05:28:42;10.70;99.90
21123;DHT22;10719;48.130;11.630;2023-05-15T05:31:08;10.80;99.90
21123;DHT22;10719;48.130;11.630;2023-05-15T05:33:33;10.80;99.90
21123;DHT22;10719;48.130;11.630;2023-05-15T05:35:59;10.80;99.90
21123;DHT22;10719;48.130;11.630;2023-05-15T05:38:24;10.70;99.90
21123;DHT22;10719;48.130;11.630;2023-05-15T05:40:52;10.80;99.90
21123;DHT22;10719;48.130;11.630;2023-05-15T05:43:17;10.80;99.90
21123;DHT22;10719;48.130;11.630;2023-05-15T05:45:45;10.70;99.90
21123;DHT22;10719;48.130;11.630;2023-05-15T05:48:10;10.70;99.90
21123;DHT22;10719;48.130;11.630;2023-05-15T05:50:37;10.70;99.90
21123;DHT22;10719;48.130;11.630;2023-05-15T05:53:03;10.70;99.90
21123;DHT22;10719;48.130;11.630;2023-05-15T05:55:29;10.80;99.90
21123;DHT22;10719;48.130;11.630;2023-05-15T05:57:54;10.80;99.90
21123;DHT22;10719;48.130;11.630;2023-05-15T06:00:20;10.80;99.90
21123;DHT22;10719;48.130;11.630;2023-05-15T06:02:46;10.90;99.90
21123;DHT22;10719;48.130;11.630;2023-05-15T06:05:11;10.80;99.90
21123;DHT22;10719;48.130;11.630;2023-05-15T06:07:37;10.90;99.90
21123;DHT22;10719;48.130;11.630;2023-05-15T06:10:03;10.90;99.90
21123;DHT22;10719;48.130;11.630;2023-05-15T06:12:29;10.80;99.90
21123;DHT22;10719;48.130;11.630;2023-05-15T06:14:55;10.90;99.90
21123;DHT22;10719;48.130;11.630;2023-05-15T06:17:20;10.90;99.90
21123;DHT22;10719;48.130;11.630;2023-05-15T06:19:47;10.80;99.90
21123;DHT22;10719;48.130;11.630;2023-05-15T06:22:12;10.90;99.90
21123;DHT22;10719;48.130;11.630;2023-05-15T06:24:38;11.00;99.90
21123;DHT22;10719;48.130;11.630;2023-05-15T06:27:03;11.00;99.90
21123;DHT22;10719;48.130;11.630;2023-05-15T06:29:29;11.00;99.90
21123;DHT22;10719;48.130;11.630;2023-05-15T06:31:55;11.10;99.90
21123;DHT22;10719;48.130;11.630;2023-05-15T06:34:21;11.20;99.90
21123;DHT22;10719;48.130;11.630;2023-05-15T06:36:46;11.20;99.90
21123;DHT22;10719;48.130;11.630;2023-05-15T06:39:12;11.20;99.90
21123;DHT22;10719;48.130;11.630;2023-05-15T06:41:37;11.30;99.90
21123;DHT22;10719;48.130;11.630;2023-05-15T06:44:04;11.60;99.90
21123;DHT22;10719;48.130;11.630;2023-05-15T06:46:29;11.70;99.90
21123;DHT22;10719;48.130;11.630;2023-05-15T06:48:55;11.80;99.90
21123;DHT22;10719;48.130;11.630;2023-05-15T06:51:20;11.70;99.90
21123;DHT22;10719;48.130;11.630;2023-05-15T06:53:46;11.90;99.90
21123;DHT22;10719;48.130;11.630;2023-05-15T06:56:12;12.00;99.90
21123;DHT22;10719;48.130;11.630;2023-05-15T06:58:37;12.10;99.90
21123;DHT22;10719;48.130;11.630;2023-05-15T07:01:03;12.10;99.90
21123;DHT22;10719;48.130;11.630;2023-05-15T07:03:30;12.00;99.90
21123;DHT22;10719;48.130;11.630;2023-05-15T07:05:56;12.00;99.90
21123;DHT22;10719;48.130;11.630;2023-05-15T07:08:21;12.10;99.90
21123;DHT22;10719;48.130;11.630;2023-05-15T07:10:48;12.20;99.90
21123;DHT22;10719;48.130;11.630;2023-05-15T07:13:15;12.30;99.90
21123;DHT22;10719;48.130;11.630;2023-05-15T07:15:41;12.40;99.90
21123;DHT22;10719;48.130;11.630;2023-05-15T07:18:07;12.40;99.90
21123;DHT22;10719;48.130;11.630;2023-05-15T07:20:32;12.50;99.90
21123;DHT22;10719;48.130;11.630;2023-05-15T07:22:58;12.60;99.90
21123;DHT22;10719;48.130;11.630;2023-05-15T07:25:24;12.70;99.90
21123;DHT22;10719;48.130;11.630;2023-05-15T07:27:50;12.70;99.90
21123;DHT22;10719;48.130;11.630;2023-05-15T07:30:15;12.80;99.90
21123;DHT22;10719;48.130;11.630;2023-05-15T07:32:41;13.00;99.90
21123;DHT22;10719;48.130;11.630;2023-05-15T07:35:07;13.30;99.90
21123;DHT22;10719;48.130;11.630;2023-05-15T07:37:32;13.60;99.90
21123;DHT22;10719;48.130;11.630;2023-05-15T07:39:58;13.80;99.90
21123;DHT22;10719;48.130;11.630;2023-05-15T07:42:24;14.00;99.90
21123;DHT22;10719;48.130;11.630;2023-05-15T07:44:50;14.00;99.90
21123;DHT22;10719;48.130;11.630;2023-05-15T07:47:16;13.90;99.90
21123;DHT22;10719;48.130;11.630;2023-05-15T07:49:41;13.80;99.90
21123;DHT22;10719;48.130;11.630;2023-05-15T07:52:07;13.60;99.90
21123;DHT22;10719;48.130;11.630;2023-05-15T07:54:33;13.80;99.90
21123;DHT22;10719;48.130;11.630;2023-05-15T07:56:58;14.00;99.90
21123;DHT22;10719;48.130;11.630;2023-05-15T07:59:24;14.20;99.90
21123;DHT22;10719;48.130;11.630;2023-05-15T08:01:49;14.20;99.90
21123;DHT22;10719;48.130;11.630;2023-05-15T08:04:15;14.10;99.90
21123;DHT22;10719;48.130;11.630;2023-05-15T08:06:41;14.20;99.90
21123;DHT22;10719;48.130;11.630;2023-05-15T08:09:07;14.20;99.90
21123;DHT22;10719;48.130;11.630;2023-05-15T08:11:34;14.00;99.90
21123;DHT22;10719;48.130;11.630;2023-05-15T08:13:59;13.70;99.90
21123;DHT22;10719;48.130;11.630;2023-05-15T08:16:25;14.00;99.90
21123;DHT22;10719;48.130;11.630;2023-05-15T08:18:51;14.20;99.90
21123;DHT22;10719;48.130;11.630;2023-05-15T08:21:17;14.30;99.90
21123;DHT22;10719;48.130;11.630;2023-05-15T08:23:43;14.20;99.90
21123;DHT22;10719;48.130;11.630;2023-05-15T08:26:09;14.60;99.90
21123;DHT22;10719;48.130;11.630;2023-05-15T08:28:34;14.90;99.90
21123;DHT22;10719;48.130;11.630;2023-05-15T08:31:00;14.70;99.90
21123;DHT22;10719;48.130;11.630;2023-05-15T08:33:26;14.50;99.90
21123;DHT22;10719;48.130;11.630;2023-05-15T08:35:51;14.40;99.90
21123;DHT22;10719;48.130;11.630;2023-05-15T08:38:17;14.40;99.90
21123;DHT22;10719;48.130;11.630;2023-05-15T08:40:45;14.40;99.90
21123;DHT22;10719;48.130;11.630;2023-05-15T08:43:15;14.40;99.90
21123;DHT22;10719;48.130;11.630;2023-05-15T08:45:42;14.40;99.90
21123;DHT22;10719;48.130;11.630;2023-05-15T08:48:12;14.30;99.90
21123;DHT22;10719;48.130;11.630;2023-05-15T08:50:38;14.90;99.90
21123;DHT22;10719;48.130;11.630;2023-05-15T08:53:05;15.40;99.90
21123;DHT22;10719;48.130;11.630;2023-05-15T08:55:31;15.90;99.90
21123;DHT22;10719;48.130;11.630;2023-05-15T08:57:57;16.40;99.90
21123;DHT22;10719;48.130;11.630;2023-05-15T09:00:24;16.20;99.90
21123;DHT22;10719;48.130;11.630;2023-05-15T09:02:52;15.70;99.90
21123;DHT22;10719;48.130;11.630;2023-05-15T09:05:18;15.10;99.90
21123;DHT22;10719;48.130;11.630;2023-05-15T09:07:45;14.70;99.90
21123;DHT22;10719;48.130;11.630;2023-05-15T09:10:13;14.60;99.90
21123;DHT22;10719;48.130;11.630;2023-05-15T09:12:42;14.40;99.90
21123;DHT22;10719;48.130;11.630;2023-05-15T09:15:09;14.40;99.90
21123;DHT22;10719;48.130;11.630;2023-05-15T09:17:35;14.40;99.90
21123;DHT22;10719;48.130;11.630;2023-05-15T09:20:02;14.40;99.90
21123;DHT22;10719;48.130;11.630;2023-05-15T09:22:35;14.80;99.90
21123;DHT22;10719;48.130;11.630;2023-05-15T09:25:01;15.00;99.90
21123;DHT22;10719;48.130;11.630;2023-05-15T09:27:28;15.70;99.90
21123;DHT22;10719;48.130;11.630;2023-05-15T09:29:54;15.90;99.90
21123;DHT22;10719;48.130;11.630;2023-05-15T09:32:25;16.50;99.90
21123;DHT22;10719;48.130;11.630;2023-05-15T09:34:52;16.40;99.90
21123;DHT22;10719;48.130;11.630;2023-05-15T09:37:29;16.10;99.90
21123;DHT22;10719;48.130;11.630;2023-05-15T09:40:05;16.70;99.90
21123;DHT22;10719;48.130;11.630;2023-05-15T09:42:33;17.00;99.90
21123;DHT22;10719;48.130;11.630;2023-05-15T09:44:59;16.70;99.90
21123;DHT22;10719;48.130;11.630;2023-05-15T09:47:25;17.20;99.90
21123;DHT22;10719;48.130;11.630;2023-05-15T09:49:51;17.40;99.90
21123;DHT22;10719;48.130;11.630;2023-05-15T09:52:17;17.40;99.90
21123;DHT22;10719;48.130;11.630;2023-05-15T09:54:44;17.40;99.90
21123;DHT22;10719;48.130;11.630;2023-05-15T09:57:12;17.30;99.90
21123;DHT22;10719;48.130;11.630;2023-05-15T09:59:46;17.10;99.90
21123;DHT22;10719;48.130;11.630;2023-05-15T10:02:21;16.80;99.90
21123;DHT22;10719;48.130;11.630;2023-05-15T10:04:53;16.80;99.90
21123;DHT22;10719;48.130;11.630;2023-05-15T10:07:33;17.00;99.90
21123;DHT22;10719;48.130;11.630;2023-05-15T10:10:01;17.30;99.90
21123;DHT22;10719;48.130;11.630;2023-05-15T10:12:28;18.10;99.90
21123;DHT22;10719;48.130;11.630;2023-05-15T10:14:56;17.70;99.90
21123;DHT22;10719;48.130;11.630;2023-05-15T10:17:23;17.40;99.90
21123;DHT22;10719;48.130;11.630;2023-05-15T10:19:51;17.30;99.90
21123;DHT22;10719;48.130;11.630;2023-05-15T10:22:21;17.00;99.90
21123;DHT22;10719;48.130;11.630;2023-05-15T10:24:51;17.20;99.90
21123;DHT22;10719;48.130;11.630;2023-05-15T10:27:17;17.50;99.90
21123;DHT22;10719;48.130;11.630;2023-05-15T10:29:45;17.50;99.90
21123;DHT22;10719;48.130;11.630;2023-05-15T10:32:12;17.40;99.90
21123;DHT22;10719;48.130;11.630;2023-05-15T10:34:38;16.90;99.90
21123;DHT22;10719;48.130;11.630;2023-05-15T10:37:04;17.00;99.90
21123;DHT22;10719;48.130;11.630;2023-05-15T10:39:30;18.20;99.90
21123;DHT22;10719;48.130;11.630;2023-05-15T10:41:57;19.10;99.90
21123;DHT22;10719;48.130;11.630;2023-05-15T10:44:23;19.60;99.90
21123;DHT22;10719;48.130;11.630;2023-05-15T10:46:49;19.80;99.90
21123;DHT22;10719;48.130;11.630;2023-05-15T10:49:15;19.10;99.90
21123;DHT22;10719;48.130;11.630;2023-05-15T10:51:41;18.60;99.90
21123;DHT22;10719;48.130;11.630;2023-05-15T10:54:08;17.90;99.90
21123;DHT22;10719;48.130;11.630;2023-05-15T10:56:37;17.60;99.90
21123;DHT22;10719;48.130;11.630;2023-05-15T10:59:07;17.30;99.90
21123;DHT22;10719;48.130;11.630;2023-05-15T11:01:34;16.40;99.90
21123;DHT22;10719;48.130;11.630;2023-05-15T11:04:04;15.70;99.90
21123;DHT22;10719;48.130;11.630;2023-05-15T11:06:34;14.80;99.90
21123;DHT22;10719;48.130;11.630;2023-05-15T11:09:37;14.20;99.90
21123;DHT22;10719;48.130;11.630;2023-05-15T11:12:05;14.00;99.90
21123;DHT22;10719;48.130;11.630;2023-05-15T11:14:42;14.00;99.90
21123;DHT22;10719;48.130;11.630;2023-05-15T11:17:12;14.00;99.90
21123;DHT22;10719;48.130;11.630;2023-05-15T11:25:01;13.40;99.90
21123;DHT22;10719;48.130;11.630;2023-05-15T11:27:37;13.30;99.90
21123;DHT22;10719;48.130;11.630;2023-05-15T11:35:22;13.00;99.90
21123;DHT22;10719;48.130;11.630;2023-05-15T11:37:50;12.90;99.90
21123;DHT22;10719;48.130;11.630;2023-05-15T11:40:25;12.90;99.90
21123;DHT22;10719;48.130;11.630;2023-05-15T11:43:05;12.90;99.90
21123;DHT22;10719;48.130;11.630;2023-05-15T11:45:37;13.00;99.90
21123;DHT22;10719;48.130;11.630;2023-05-15T11:48:05;13.30;99.90
21123;DHT22;10719;48.130;11.630;2023-05-15T11:50:33;13.50;99.90
21123;DHT22;10719;48.130;11.630;2023-05-15T11:53:03;13.50;99.90
21123;DHT22;10719;48.130;11.630;2023-05-15T11:55:31;13.60;99.90
21123;DHT22;10719;48.130;11.630;2023-05-15T11:57:57;14.10;99.90
21123;DHT22;10719;48.130;11.630;2023-05-15T12:00:23;14.60;99.90
21123;DHT22;10719;48.130;11.630;2023-05-15T12:02:49;14.90;99.90
21123;DHT22;10719;48.130;11.630;2023-05-15T12:05:14;15.50;99.90
21123;DHT22;10719;48.130;11.630;2023-05-15T12:07:41;15.40;99.90
21123;DHT22;10719;48.130;11.630;2023-05-15T12:10:11;15.10;99.90
21123;DHT22;10719;48.130;11.630;2023-05-15T12:12:44;14.60;99.90
21123;DHT22;10719;48.130;11.630;2023-05-15T12:15:14;14.10;99.90
21123;DHT22;10719;48.130;11.630;2023-05-15T12:17:42;13.60;99.90
21123;DHT22;10719;48.130;11.630;2023-05-15T12:20:15;13.30;99.90
21123;DHT22;10719;48.130;11.630;2023-05-15T12:22:41;13.10;99.90
21123;DHT22;10719;48.130;11.630;2023-05-15T12:25:08;12.80;99.90
21123;DHT22;10719;48.130;11.630;2023-05-15T12:27:34;12.70;99.90
21123;DHT22;10719;48.130;11.630;2023-05-15T12:30:01;12.50;99.90
21123;DHT22;10719;48.130;11.630;2023-05-15T12:32:30;12.40;99.90
21123;DHT22;10719;48.130;11.630;2023-05-15T12:34:56;12.30;99.90
21123;DHT22;10719;48.130;11.630;2023-05-15T12:37:22;12.40;99.90
21123;DHT22;10719;48.130;11.630;2023-05-15T12:39:53;12.50;99.90
21123;DHT22;10719;48.130;11.630;2023-05-15T12:42:20;12.40;99.90
21123;DHT22;10719;48.130;11.630;2023-05-15T12:44:49;12.50;99.90
21123;DHT22;10719;48.130;11.630;2023-05-15T12:47:23;12.50;99.90
21123;DHT22;10719;48.130;11.630;2023-05-15T12:49:49;12.50;99.90
21123;DHT22;10719;48.130;11.630;2023-05-15T12:52:15;12.50;99.90
21123;DHT22;10719;48.130;11.630;2023-05-15T12:54:43;12.40;99.90
21123;DHT22;10719;48.130;11.630;2023-05-15T12:57:09;12.30;99.90
21123;DHT22;10719;48.130;11.630;2023-05-15T12:59:35;12.20;99.90
21123;DHT22;10719;48.130;11.630;2023-05-15T13:02:01;12.10;99.90
21123;DHT22;10719;48.130;11.630;2023-05-15T13:04:27;12.00;99.90
21123;DHT22;10719;48.130;11.630;2023-05-15T13:06:52;12.00;99.90
21123;DHT22;10719;48.130;11.630;2023-05-15T13:09:21;12.00;99.90
21123;DHT22;10719;48.130;11.630;2023-05-15T13:11:47;12.00;99.90
21123;DHT22;10719;48.130;11.630;2023-05-15T13:14:16;12.20;99.90
21123;DHT22;10719;48.130;11.630;2023-05-15T13:16:44;12.40;99.90
21123;DHT22;10719;48.130;11.630;2023-05-15T13:19:10;12.40;99.90
21123;DHT22;10719;48.130;11.630;2023-05-15T13:21:36;12.40;99.90
21123;DHT22;10719;48.130;11.630;2023-05-15T13:24:02;12.40;99.90
21123;DHT22;10719;48.130;11.630;2023-05-15T13:26:28;12.40;99.90
21123;DHT22;10719;48.130;11.630;2023-05-15T13:28:53;12.40;99.90
21123;DHT22;10719;48.130;11.630;2023-05-15T13:31:19;12.40;99.90
21123;DHT22;10719;48.130;11.630;2023-05-15T13:33:44;12.40;99.90
21123;DHT22;10719;48.130;11.630;2023-05-15T13:36:10;12.40;99.90
21123;DHT22;10719;48.130;11.630;2023-05-15T13:38:36;12.50;99.90
21123;DHT22;10719;48.130;11.630;2023-05-15T13:41:03;12.40;99.90
21123;DHT22;10719;48.130;11.630;2023-05-15T13:43:29;12.50;99.90
21123;DHT22;10719;48.130;11.630;2023-05-15T13:45:54;12.60;99.90
21123;DHT22;10719;48.130;11.630;2023-05-15T13:48:20;12.40;99.90
21123;DHT22;10719;48.130;11.630;2023-05-15T13:50:46;12.50;99.90
21123;DHT22;10719;48.130;11.630;2023-05-15T13:53:13;12.50;99.90
21123;DHT22;10719;48.130;11.630;2023-05-15T13:55:44;12.50;99.90
21123;DHT22;10719;48.130;11.630;2023-05-15T13:58:12;12.50;99.90
21123;DHT22;10719;48.130;11.630;2023-05-15T14:00:38;12.70;99.90
21123;DHT22;10719;48.130;11.630;2023-05-15T14:03:04;12.80;99.90
21123;DHT22;10719;48.130;11.630;2023-05-15T14:05:30;12.90;99.90
21123;DHT22;10719;48.130;11.630;2023-05-15T14:07:56;13.00;99.90
21123;DHT22;10719;48.130;11.630;2023-05-15T14:10:22;13.00;99.90
21123;DHT22;10719;48.130;11.630;2023-05-15T14:12:51;13.00;99.90
21123;DHT22;10719;48.130;11.630;2023-05-15T14:15:17;13.00;99.90
21123;DHT22;10719;48.130;11.630;2023-05-15T14:17:43;13.00;99.90
21123;DHT22;10719;48.130;11.630;2023-05-15T14:20:09;12.90;99.90
21123;DHT22;10719;48.130;11.630;2023-05-15T14:22:36;13.00;99.90
21123;DHT22;10719;48.130;11.630;2023-05-15T14:25:03;12.90;99.90
21123;DHT22;10719;48.130;11.630;2023-05-15T14:27:29;12.90;99.90
21123;DHT22;10719;48.130;11.630;2023-05-15T14:29:54;12.90;99.90
21123;DHT22;10719;48.130;11.630;2023-05-15T14:32:23;13.00;99.90
21123;DHT22;10719;48.130;11.630;2023-05-15T14:34:49;13.20;99.90
21123;DHT22;10719;48.130;11.630;2023-05-15T14:37:15;13.30;99.90
21123;DHT22;10719;48.130;11.630;2023-05-15T14:39:40;13.50;99.90
21123;DHT22;10719;48.130;11.630;2023-05-15T14:42:06;13.70;99.90
21123;DHT22;10719;48.130;11.630;2023-05-15T14:44:33;13.90;99.90
21123;DHT22;10719;48.130;11.630;2023-05-15T14:47:10;14.10;99.90
21123;DHT22;10719;48.130;11.630;2023-05-15T14:49:39;14.40;99.90
21123;DHT22;10719;48.130;11.630;2023-05-15T14:52:07;14.60;99.90
21123;DHT22;10719;48.130;11.630;2023-05-15T14:54:33;14.50;99.90
21123;DHT22;10719;48.130;11.630;2023-05-15T14:57:00;14.20;99.90
21123;DHT22;10719;48.130;11.630;2023-05-15T14:59:29;14.30;99.90
21123;DHT22;10719;48.130;11.630;2023-05-15T15:01:54;14.30;99.90
21123;DHT22;10719;48.130;11.630;2023-05-15T15:04:20;14.00;99.90
21123;DHT22;10719;48.130;11.630;2023-05-15T15:06:46;13.80;99.90
21123;DHT22;10719;48.130;11.630;2023-05-15T15:09:12;13.50;99.90
21123;DHT22;10719;48.130;11.630;2023-05-15T15:11:38;13.40;99.90
21123;DHT22;10719;48.130;11.630;2023-05-15T15:14:03;13.20;99.90
21123;DHT22;10719;48.130;11.630;2023-05-15T15:16:29;12.80;99.90
21123;DHT22;10719;48.130;11.630;2023-05-15T15:18:54;12.60;99.90
21123;DHT22;10719;48.130;11.630;2023-05-15T15:21:20;12.60;99.90
21123;DHT22;10719;48.130;11.630;2023-05-15T15:23:46;12.50;99.90
21123;DHT22;10719;48.130;11.630;2023-05-15T15:26:12;12.40;99.90
21123;DHT22;10719;48.130;11.630;2023-05-15T15:28:39;12.40;99.90
21123;DHT22;10719;48.130;11.630;2023-05-15T15:31:05;12.20;99.90
21123;DHT22;10719;48.130;11.630;2023-05-15T15:33:30;12.20;99.90
21123;DHT22;10719;48.130;11.630;2023-05-15T15:35:56;12.20;99.90
21123;DHT22;10719;48.130;11.630;2023-05-15T15:38:22;12.20;99.90
21123;DHT22;10719;48.130;11.630;2023-05-15T15:40:47;12.20;99.90
21123;DHT22;10719;48.130;11.630;2023-05-15T15:43:13;12.30;99.90